createdAt,value
2019-01-12T00:00:33.569Z,28.40
2019-01-12T00:01:33.557Z,23.60
2019-01-12T00:02:33.552Z,29.80
2019-01-12T00:03:33.534Z,28.90
2019-01-12T00:04:33.527Z,24.90
2019-01-12T00:05:33.514Z,31.30
2019-01-12T00:06:33.503Z,24.00
2019-01-12T00:07:33.492Z,26.70
2019-01-12T00:08:33.490Z,22.90
2019-01-12T00:09:33.470Z,27.50
2019-01-12T00:10:33.458Z,28.10
2019-01-12T00:11:33.449Z,25.90
2019-01-12T00:12:33.439Z,30.20
2019-01-12T00:13:33.427Z,23.30
2019-01-12T00:14:33.423Z,29.70
2019-01-12T00:15:33.407Z,24.90
2019-01-12T00:16:33.397Z,30.30
2019-01-12T00:17:33.387Z,27.40
2019-01-12T00:18:33.373Z,31.30
2019-01-12T00:19:33.363Z,22.40
2019-01-12T00:20:33.355Z,28.60
2019-01-12T00:21:33.346Z,29.10
2019-01-12T00:22:33.333Z,25.30
2019-01-12T00:23:33.321Z,31.10
2019-01-12T00:24:33.315Z,27.90
2019-01-12T00:25:33.305Z,22.60
2019-01-12T00:26:33.288Z,22.40
2019-01-12T00:27:33.277Z,28.50
2019-01-12T00:28:33.265Z,28.60
2019-01-12T00:29:33.255Z,28.20
2019-01-12T00:30:33.245Z,24.70
2019-01-12T00:31:33.235Z,28.70
2019-01-12T00:32:33.223Z,28.20
2019-01-12T00:33:33.213Z,30.10
2019-01-12T00:34:33.206Z,22.10
2019-01-12T00:35:33.190Z,23.50
2019-01-12T00:36:33.182Z,27.50
2019-01-12T00:37:33.174Z,29.80
2019-01-12T00:38:33.162Z,25.70
2019-01-12T00:39:33.150Z,24.20
2019-01-12T00:40:33.142Z,24.70
2019-01-12T00:41:33.128Z,27.40
2019-01-12T00:42:33.117Z,25.40
2019-01-12T00:43:33.110Z,24.10
2019-01-12T00:44:33.100Z,30.00
2019-01-12T00:45:33.085Z,23.70
2019-01-12T00:46:33.075Z,29.20
2019-01-12T00:47:33.065Z,31.00
2019-01-12T00:48:33.056Z,31.40
2019-01-12T00:49:33.050Z,30.80
2019-01-12T00:50:33.034Z,28.40
2019-01-12T00:51:33.022Z,26.60
2019-01-12T00:52:33.013Z,27.00
2019-01-12T00:53:33.000Z,27.20
2019-01-12T00:54:38.512Z,30.20
2019-01-12T00:55:33.979Z,26.60
2019-01-12T00:56:32.970Z,21.30
2019-01-12T00:57:32.958Z,28.90
2019-01-12T00:58:32.944Z,27.70
2019-01-12T00:59:32.937Z,28.60
2019-01-12T01:00:32.926Z,26.50
2019-01-12T01:01:32.913Z,34.00
2019-01-12T01:02:32.905Z,25.80
2019-01-12T01:03:32.894Z,27.40
2019-01-12T01:04:32.885Z,33.90
2019-01-12T01:05:32.874Z,30.60
2019-01-12T01:06:32.865Z,27.30
2019-01-12T01:07:32.849Z,25.40
2019-01-12T01:08:32.838Z,23.10
2019-01-12T01:09:32.829Z,27.10
2019-01-12T01:10:32.820Z,32.50
2019-01-12T01:11:32.808Z,28.70
2019-01-12T01:12:32.795Z,27.30
2019-01-12T01:13:32.785Z,32.90
2019-01-12T01:14:32.777Z,28.40
2019-01-12T01:15:32.765Z,28.70
2019-01-12T01:16:32.756Z,27.90
2019-01-12T01:17:32.744Z,25.70
2019-01-12T01:18:32.733Z,33.90
2019-01-12T01:19:32.722Z,23.60
2019-01-12T01:20:32.711Z,28.70
2019-01-12T01:21:32.703Z,27.10
2019-01-12T01:22:32.692Z,27.20
2019-01-12T01:23:32.679Z,26.30
2019-01-12T01:24:32.669Z,28.50
2019-01-12T01:25:32.658Z,25.30
2019-01-12T01:26:32.647Z,34.30
2019-01-12T01:27:32.641Z,32.30
2019-01-12T01:28:32.626Z,26.70
2019-01-12T01:29:32.616Z,25.80
2019-01-12T01:30:32.605Z,28.30
2019-01-12T01:31:32.592Z,22.10
2019-01-12T01:32:32.583Z,22.60
2019-01-12T01:33:32.571Z,25.40
2019-01-12T01:34:32.569Z,20.10
2019-01-12T01:35:32.552Z,19.20
2019-01-12T01:36:32.543Z,24.00
2019-01-12T01:37:32.529Z,25.10
2019-01-12T01:38:32.520Z,24.50
2019-01-12T01:39:32.509Z,26.30
2019-01-12T01:40:32.498Z,31.00
2019-01-12T01:41:32.486Z,27.40
2019-01-12T01:42:32.481Z,27.80
2019-01-12T01:43:32.464Z,22.90
2019-01-12T01:44:32.458Z,26.80
2019-01-12T01:45:32.442Z,24.20
2019-01-12T01:46:32.436Z,26.70
2019-01-12T01:47:32.423Z,24.60
2019-01-12T01:48:32.412Z,24.10
2019-01-12T01:49:32.403Z,27.20
2019-01-12T01:50:32.389Z,22.00
2019-01-12T01:51:32.378Z,23.70
2019-01-12T01:52:32.369Z,24.20
2019-01-12T01:53:32.358Z,23.50
2019-01-12T01:54:32.352Z,21.80
2019-01-12T01:55:32.339Z,26.40
2019-01-12T01:56:32.325Z,23.80
2019-01-12T01:57:32.314Z,24.20
2019-01-12T01:58:32.307Z,29.30
2019-01-12T01:59:32.299Z,26.00
2019-01-12T02:00:32.284Z,30.70
2019-01-12T02:01:32.272Z,27.80
2019-01-12T02:02:32.264Z,31.30
2019-01-12T02:03:32.252Z,27.60
2019-01-12T02:04:32.245Z,23.80
2019-01-12T02:05:32.229Z,33.00
2019-01-12T02:06:32.219Z,23.30
2019-01-12T02:07:32.210Z,29.20
2019-01-12T02:08:32.201Z,32.10
2019-01-12T02:09:32.186Z,24.80
2019-01-12T02:10:32.177Z,28.50
2019-01-12T02:11:32.219Z,29.10
2019-01-12T02:12:32.156Z,32.10
2019-01-12T02:13:32.144Z,24.90
2019-01-12T02:14:32.137Z,25.40
2019-01-12T02:15:32.125Z,26.80
2019-01-12T02:16:32.117Z,26.40
2019-01-12T02:17:32.102Z,19.20
2019-01-12T02:18:32.092Z,24.30
2019-01-12T02:19:32.085Z,31.90
2019-01-12T02:20:32.070Z,32.20
2019-01-12T02:21:32.061Z,30.30
2019-01-12T02:22:32.048Z,33.00
2019-01-12T02:23:32.044Z,35.40
2019-01-12T02:24:32.028Z,31.60
2019-01-12T02:25:32.019Z,30.20
2019-01-12T02:26:32.007Z,25.70
2019-01-12T02:27:31.994Z,25.80
2019-01-12T02:28:31.987Z,24.40
2019-01-12T02:29:31.978Z,28.60
2019-01-12T02:30:31.972Z,29.00
2019-01-12T02:31:31.952Z,22.90
2019-01-12T02:32:31.940Z,21.00
2019-01-12T02:33:31.931Z,22.50
2019-01-12T02:34:31.925Z,32.20
2019-01-12T02:35:31.911Z,30.30
2019-01-12T02:36:31.902Z,31.80
2019-01-12T02:37:31.890Z,26.80
2019-01-12T02:38:31.881Z,24.20
2019-01-12T02:39:31.871Z,27.80
2019-01-12T02:40:31.857Z,21.40
2019-01-12T02:41:31.848Z,24.10
2019-01-12T02:42:31.837Z,25.10
2019-01-12T02:43:31.828Z,19.00
2019-01-12T02:44:31.818Z,28.10
2019-01-12T02:45:31.803Z,22.90
2019-01-12T02:46:31.793Z,23.30
2019-01-12T02:47:31.784Z,26.60
2019-01-12T02:48:31.773Z,26.20
2019-01-12T02:49:31.761Z,25.50
2019-01-12T02:50:31.751Z,28.10
2019-01-12T02:51:31.738Z,23.90
2019-01-12T02:52:31.729Z,26.70
2019-01-12T02:53:31.717Z,25.60
2019-01-12T02:54:31.717Z,31.70
2019-01-12T02:55:31.696Z,26.70
2019-01-12T02:56:31.688Z,26.90
2019-01-12T02:57:31.676Z,25.20
2019-01-12T02:58:31.664Z,29.20
2019-01-12T02:59:31.656Z,27.30
2019-01-12T03:00:31.647Z,28.00
2019-01-12T03:01:31.633Z,30.40
2019-01-12T03:02:31.621Z,27.50
2019-01-12T03:03:31.610Z,30.00
2019-01-12T03:04:31.606Z,23.20
2019-01-12T03:05:31.590Z,21.60
2019-01-12T03:06:31.579Z,27.90
2019-01-12T03:07:31.569Z,24.80
2019-01-12T03:08:31.557Z,26.20
2019-01-12T03:09:31.548Z,26.00
2019-01-12T03:10:31.538Z,28.30
2019-01-12T03:11:31.525Z,28.20
2019-01-12T03:12:31.517Z,24.00
2019-01-12T03:13:31.548Z,23.00
2019-01-12T03:14:31.496Z,26.50
2019-01-12T03:15:31.487Z,25.50
2019-01-12T03:16:31.476Z,26.00
2019-01-12T03:17:31.464Z,24.90
2019-01-12T03:18:31.453Z,27.00
2019-01-12T03:19:31.442Z,23.80
2019-01-12T03:20:31.432Z,20.80
2019-01-12T03:21:31.421Z,24.70
2019-01-12T03:22:31.414Z,23.50
2019-01-12T03:23:31.402Z,20.60
2019-01-12T03:24:31.393Z,27.30
2019-01-12T03:25:31.376Z,26.00
2019-01-12T03:26:31.370Z,25.80
2019-01-12T03:27:31.356Z,22.80
2019-01-12T03:28:31.344Z,29.70
2019-01-12T03:29:31.333Z,24.40
2019-01-12T03:30:31.325Z,25.80
2019-01-12T03:31:31.314Z,27.70
2019-01-12T03:32:31.302Z,22.40
2019-01-12T03:33:31.296Z,25.80
2019-01-12T03:34:31.284Z,23.00
2019-01-12T03:35:31.270Z,20.30
2019-01-12T03:36:31.265Z,21.20
2019-01-12T03:37:31.249Z,23.40
2019-01-12T03:38:31.238Z,21.00
2019-01-12T03:39:31.229Z,29.30
2019-01-12T03:40:31.217Z,20.00
2019-01-12T03:41:31.206Z,22.00
2019-01-12T03:42:31.197Z,19.60
2019-01-12T03:43:31.186Z,26.60
2019-01-12T03:44:31.175Z,23.20
2019-01-12T03:45:31.189Z,26.30
2019-01-12T03:46:31.152Z,20.40
2019-01-12T03:47:31.146Z,24.00
2019-01-12T03:48:31.132Z,24.30
2019-01-12T03:49:31.120Z,24.90
2019-01-12T03:50:31.111Z,28.40
2019-01-12T03:51:31.100Z,30.10
2019-01-12T03:52:31.087Z,22.40
2019-01-12T03:53:31.081Z,25.70
2019-01-12T03:54:31.068Z,25.80
2019-01-12T03:55:31.058Z,30.40
2019-01-12T03:56:31.047Z,25.90
2019-01-12T03:57:31.035Z,25.10
2019-01-12T03:58:31.025Z,21.70
2019-01-12T03:59:31.023Z,31.80
2019-01-12T04:00:31.004Z,21.40
2019-01-12T04:01:30.996Z,27.40
2019-01-12T04:02:30.980Z,20.00
2019-01-12T04:03:30.972Z,25.90
2019-01-12T04:04:30.963Z,24.40
2019-01-12T04:05:30.950Z,30.70
2019-01-12T04:06:30.939Z,19.90
2019-01-12T04:07:30.929Z,26.20
2019-01-12T04:08:30.918Z,30.40
2019-01-12T04:09:30.906Z,32.40
2019-01-12T04:10:30.896Z,26.90
2019-01-12T04:11:30.894Z,28.90
2019-01-12T04:12:30.879Z,20.00
2019-01-12T04:13:30.863Z,32.10
2019-01-12T04:14:30.863Z,27.50
2019-01-12T04:15:30.846Z,25.70
2019-01-12T04:16:30.833Z,26.70
2019-01-12T04:17:30.822Z,24.00
2019-01-12T04:18:30.814Z,27.60
2019-01-12T04:19:30.802Z,35.90
2019-01-12T04:20:30.788Z,27.40
2019-01-12T04:21:30.784Z,24.30
2019-01-12T04:22:30.767Z,29.30
2019-01-12T04:23:30.758Z,23.70
2019-01-12T04:24:30.754Z,26.20
2019-01-12T04:25:34.022Z,27.20
2019-01-12T04:26:30.725Z,29.20
2019-01-12T04:27:30.714Z,25.00
2019-01-12T04:28:30.703Z,28.10
2019-01-12T04:29:30.696Z,32.90
2019-01-12T04:30:30.686Z,25.00
2019-01-12T04:31:30.673Z,21.20
2019-01-12T04:32:30.661Z,24.90
2019-01-12T04:33:30.649Z,27.90
2019-01-12T04:34:30.644Z,28.70
2019-01-12T04:35:30.629Z,27.10
2019-01-12T04:36:30.619Z,27.50
2019-01-12T04:37:30.606Z,27.40
2019-01-12T04:38:30.595Z,31.10
2019-01-12T04:39:30.589Z,26.10
2019-01-12T04:40:30.577Z,33.20
2019-01-12T04:41:30.569Z,28.90
2019-01-12T04:42:30.554Z,25.30
2019-01-12T04:43:30.543Z,23.70
2019-01-12T04:44:30.537Z,26.30
2019-01-12T04:45:30.523Z,27.90
2019-01-12T04:46:30.511Z,25.90
2019-01-12T04:47:30.506Z,24.40
2019-01-12T04:48:30.491Z,25.80
2019-01-12T04:49:30.480Z,28.40
2019-01-12T04:50:30.474Z,34.50
2019-01-12T04:51:30.457Z,26.70
2019-01-12T04:52:30.447Z,29.30
2019-01-12T04:53:30.443Z,24.10
2019-01-12T04:54:30.429Z,25.00
2019-01-12T04:55:30.415Z,20.60
2019-01-12T04:56:30.405Z,20.70
2019-01-12T04:57:30.395Z,30.60
2019-01-12T04:58:30.384Z,35.00
2019-01-12T04:59:30.373Z,26.60
2019-01-12T05:00:30.362Z,32.90
2019-01-12T05:01:30.350Z,32.60
2019-01-12T05:02:30.339Z,24.70
2019-01-12T05:03:30.332Z,23.80
2019-01-12T05:04:30.322Z,22.40
2019-01-12T05:05:30.308Z,24.90
2019-01-12T05:06:30.302Z,23.90
2019-01-12T05:07:30.285Z,20.80
2019-01-12T05:08:30.281Z,24.40
2019-01-12T05:09:30.271Z,29.30
2019-01-12T05:10:30.257Z,24.40
2019-01-12T05:11:30.245Z,27.40
2019-01-12T05:12:30.232Z,27.20
2019-01-12T05:13:30.221Z,25.40
2019-01-12T05:14:30.219Z,23.10
2019-01-12T05:15:30.211Z,26.80
2019-01-12T05:16:30.191Z,31.10
2019-01-12T05:17:30.230Z,28.40
2019-01-12T05:18:30.170Z,27.40
2019-01-12T05:19:30.160Z,23.60
2019-01-12T05:20:30.147Z,26.50
2019-01-12T05:21:30.136Z,26.10
2019-01-12T05:22:30.129Z,27.50
2019-01-12T05:23:30.123Z,30.30
2019-01-12T05:24:30.107Z,20.60
2019-01-12T05:25:30.097Z,26.10
2019-01-12T05:26:30.089Z,19.70
2019-01-12T05:27:30.071Z,24.80
2019-01-12T05:28:30.061Z,21.40
2019-01-12T05:29:30.050Z,24.10
2019-01-12T05:30:30.041Z,24.20
2019-01-12T05:31:30.029Z,26.20
2019-01-12T05:32:30.028Z,25.70
2019-01-12T05:33:30.009Z,18.80
2019-01-12T05:34:30.001Z,30.90
2019-01-12T05:35:29.986Z,23.40
2019-01-12T05:36:29.978Z,22.50
2019-01-12T05:37:29.966Z,23.10
2019-01-12T05:38:29.957Z,23.10
2019-01-12T05:39:29.943Z,28.10
2019-01-12T05:40:29.940Z,20.40
2019-01-12T05:41:29.944Z,25.10
2019-01-12T05:42:29.911Z,26.20
2019-01-12T05:43:29.902Z,27.30
2019-01-12T05:44:29.892Z,18.80
2019-01-12T05:45:29.879Z,22.70
2019-01-12T05:46:29.871Z,21.40
2019-01-12T05:47:29.860Z,26.10
2019-01-12T05:48:29.848Z,29.10
2019-01-12T05:49:29.839Z,23.00
2019-01-12T05:50:29.827Z,24.70
2019-01-12T05:51:29.816Z,23.50
2019-01-12T05:52:29.803Z,26.10
2019-01-12T05:53:29.795Z,22.60
2019-01-12T05:54:29.786Z,22.80
2019-01-12T05:55:29.788Z,23.80
2019-01-12T05:56:29.763Z,23.20
2019-01-12T05:57:29.756Z,22.40
2019-01-12T05:58:29.742Z,19.10
2019-01-12T05:59:29.736Z,23.00
2019-01-12T06:00:29.720Z,22.50
2019-01-12T06:01:29.713Z,22.60
2019-01-12T06:02:29.698Z,18.70
2019-01-12T06:03:29.691Z,22.90
2019-01-12T06:04:29.684Z,16.80
2019-01-12T06:05:29.669Z,21.80
2019-01-12T06:06:29.656Z,23.50
2019-01-12T06:07:29.644Z,19.30
2019-01-12T06:08:29.635Z,19.40
2019-01-12T06:09:29.627Z,22.50
2019-01-12T06:10:29.613Z,16.50
2019-01-12T06:11:29.602Z,19.50
2019-01-12T06:12:29.597Z,21.80
2019-01-12T06:13:29.580Z,19.90
2019-01-12T06:14:29.583Z,21.20
2019-01-12T06:15:29.558Z,22.20
2019-01-12T06:16:29.548Z,18.90
2019-01-12T06:17:29.539Z,20.90
2019-01-12T06:18:29.526Z,20.30
2019-01-12T06:19:29.517Z,20.50
2019-01-12T06:20:29.507Z,16.20
2019-01-12T06:21:29.495Z,21.20
2019-01-12T06:22:29.483Z,18.90
2019-01-12T06:23:29.473Z,22.70
2019-01-12T06:24:29.474Z,17.90
2019-01-12T06:25:29.453Z,19.40
2019-01-12T06:26:29.441Z,15.40
2019-01-12T06:27:29.433Z,17.70
2019-01-12T06:28:29.421Z,21.80
2019-01-12T06:29:29.410Z,19.60
2019-01-12T06:30:29.401Z,19.10
2019-01-12T06:31:29.390Z,18.90
2019-01-12T06:32:29.377Z,19.30
2019-01-12T06:33:29.367Z,16.70
2019-01-12T06:34:29.363Z,19.50
2019-01-12T06:35:29.349Z,22.50
2019-01-12T06:36:29.339Z,22.00
2019-01-12T06:37:29.325Z,24.80
2019-01-12T06:38:29.317Z,18.50
2019-01-12T06:39:29.301Z,17.80
2019-01-12T06:40:29.292Z,21.40
2019-01-12T06:41:29.280Z,19.60
2019-01-12T06:42:29.281Z,20.00
2019-01-12T06:43:29.262Z,21.70
2019-01-12T06:44:29.250Z,22.60
2019-01-12T06:45:29.239Z,24.30
2019-01-12T06:46:29.229Z,21.70
2019-01-12T06:47:29.217Z,25.60
2019-01-12T06:48:29.207Z,23.70
2019-01-12T06:49:29.195Z,20.80
2019-01-12T06:50:29.184Z,21.50
2019-01-12T06:51:29.172Z,19.10
2019-01-12T06:52:29.163Z,21.60
2019-01-12T06:53:29.159Z,21.10
2019-01-12T06:54:29.143Z,20.70
2019-01-12T06:55:29.130Z,17.30
2019-01-12T06:56:29.120Z,16.90
2019-01-12T06:57:29.114Z,18.10
2019-01-12T06:58:29.100Z,17.70
2019-01-12T06:59:29.087Z,16.80
2019-01-12T07:00:29.077Z,18.70
2019-01-12T07:01:29.071Z,21.10
2019-01-12T07:02:29.056Z,17.80
2019-01-12T07:03:29.045Z,21.00
2019-01-12T07:04:29.037Z,22.90
2019-01-12T07:05:29.023Z,23.20
2019-01-12T07:06:29.013Z,20.50
2019-01-12T07:07:29.005Z,15.80
2019-01-12T07:08:28.991Z,21.00
2019-01-12T07:09:28.982Z,20.90
2019-01-12T07:10:28.973Z,16.30
2019-01-12T07:11:28.965Z,23.80
2019-01-12T07:12:28.956Z,18.20
2019-01-12T07:13:28.938Z,20.70
2019-01-12T07:14:28.930Z,22.30
2019-01-12T07:15:28.916Z,20.90
2019-01-12T07:16:28.912Z,17.10
2019-01-12T07:17:28.898Z,23.60
2019-01-12T07:18:28.885Z,20.60
2019-01-12T07:19:28.874Z,16.50
2019-01-12T07:20:28.864Z,22.10
2019-01-12T07:21:28.853Z,17.50
2019-01-12T07:22:28.841Z,15.00
2019-01-12T07:23:28.836Z,20.40
2019-01-12T07:24:28.823Z,22.50
2019-01-12T07:25:28.812Z,23.10
2019-01-12T07:26:28.800Z,23.90
2019-01-12T07:27:28.792Z,24.00
2019-01-12T07:28:28.778Z,20.00
2019-01-12T07:29:28.767Z,19.60
2019-01-12T07:30:28.757Z,22.00
2019-01-12T07:31:28.747Z,21.50
2019-01-12T07:32:28.736Z,22.20
2019-01-12T07:33:28.727Z,17.40
2019-01-12T07:34:28.721Z,13.90
2019-01-12T07:35:28.706Z,19.70
2019-01-12T07:36:28.693Z,26.80
2019-01-12T07:37:28.682Z,17.80
2019-01-12T07:38:28.673Z,18.10
2019-01-12T07:39:28.660Z,21.00
2019-01-12T07:40:28.651Z,16.40
2019-01-12T07:41:28.639Z,18.90
2019-01-12T07:42:28.632Z,27.80
2019-01-12T07:43:28.619Z,20.20
2019-01-12T07:44:28.612Z,19.70
2019-01-12T07:45:28.599Z,17.20
2019-01-12T07:46:28.585Z,25.80
2019-01-12T07:47:28.575Z,33.50
2019-01-12T07:48:28.564Z,20.90
2019-01-12T07:49:28.555Z,22.90
2019-01-12T07:50:28.547Z,22.20
2019-01-12T07:51:28.536Z,20.30
2019-01-12T07:52:28.521Z,20.60
2019-01-12T07:53:28.515Z,15.60
2019-01-12T07:54:28.502Z,16.50
2019-01-12T07:55:28.489Z,16.50
2019-01-12T07:56:28.480Z,14.90
2019-01-12T07:57:28.468Z,17.30
2019-01-12T07:58:28.458Z,21.50
2019-01-12T07:59:28.450Z,22.60
2019-01-12T08:00:28.437Z,18.70
2019-01-12T08:01:28.425Z,20.60
2019-01-12T08:02:28.417Z,20.20
2019-01-12T08:03:28.403Z,19.90
2019-01-12T08:04:28.396Z,18.70
2019-01-12T08:05:28.382Z,17.30
2019-01-12T08:06:28.372Z,24.90
2019-01-12T08:07:28.363Z,18.70
2019-01-12T08:08:28.351Z,19.60
2019-01-12T08:09:28.339Z,18.70
2019-01-12T08:10:28.347Z,19.30
2019-01-12T08:11:28.320Z,19.10
2019-01-12T08:12:28.309Z,18.40
2019-01-12T08:13:28.301Z,21.40
2019-01-12T08:14:28.290Z,19.80
2019-01-12T08:15:28.279Z,18.60
2019-01-12T08:16:28.265Z,20.30
2019-01-12T08:17:28.255Z,22.10
2019-01-12T08:18:28.246Z,22.10
2019-01-12T08:19:28.232Z,25.80
2019-01-12T08:20:28.222Z,18.40
2019-01-12T08:21:28.212Z,15.80
2019-01-12T08:22:28.214Z,19.80
2019-01-12T08:23:28.192Z,20.80
2019-01-12T08:24:28.186Z,20.70
2019-01-12T08:25:28.179Z,16.10
2019-01-12T08:26:31.290Z,21.70
2019-01-12T08:27:28.147Z,17.10
2019-01-12T08:28:28.150Z,20.00
2019-01-12T08:29:28.126Z,17.50
2019-01-12T08:30:28.115Z,18.30
2019-01-12T08:31:28.109Z,19.50
2019-01-12T08:32:28.109Z,19.10
2019-01-12T08:33:28.084Z,19.70
2019-01-12T08:34:28.076Z,16.00
2019-01-12T08:35:28.061Z,18.10
2019-01-12T08:36:28.052Z,21.00
2019-01-12T08:37:28.045Z,16.10
2019-01-12T08:38:28.082Z,18.40
2019-01-12T08:39:28.026Z,17.50
2019-01-12T08:40:28.010Z,18.90
2019-01-12T08:41:28.001Z,22.60
2019-01-12T08:42:27.990Z,21.40
2019-01-12T08:43:27.979Z,28.50
2019-01-12T08:44:27.969Z,19.80
2019-01-12T08:45:27.961Z,21.20
2019-01-12T08:46:27.947Z,22.90
2019-01-12T08:47:27.934Z,21.80
2019-01-12T08:48:27.926Z,16.20
2019-01-12T08:49:27.913Z,17.40
2019-01-12T08:50:27.903Z,23.70
2019-01-12T08:51:27.893Z,22.00
2019-01-12T08:52:27.881Z,21.30
2019-01-12T08:53:27.877Z,23.20
2019-01-12T08:54:27.868Z,22.20
2019-01-12T08:55:27.850Z,22.00
2019-01-12T08:56:27.842Z,17.40
2019-01-12T08:57:27.832Z,21.20
2019-01-12T08:58:27.818Z,21.30
2019-01-12T08:59:27.812Z,24.70
2019-01-12T09:00:27.803Z,20.10
2019-01-12T09:01:27.785Z,26.80
2019-01-12T09:02:27.777Z,20.50
2019-01-12T09:03:27.770Z,21.50
2019-01-12T09:04:27.758Z,23.50
2019-01-12T09:05:27.742Z,22.80
2019-01-12T09:06:27.735Z,21.50
2019-01-12T09:07:27.724Z,21.30
2019-01-12T09:08:27.712Z,16.70
2019-01-12T09:09:27.726Z,19.40
2019-01-12T09:10:27.693Z,21.30
2019-01-12T09:11:27.698Z,20.50
2019-01-12T09:12:27.668Z,20.90
2019-01-12T09:13:27.662Z,21.60
2019-01-12T09:14:27.656Z,18.50
2019-01-12T09:15:27.635Z,23.20
2019-01-12T09:16:27.626Z,23.80
2019-01-12T09:17:27.614Z,24.40
2019-01-12T09:18:27.604Z,20.60
2019-01-12T09:19:27.602Z,21.80
2019-01-12T09:20:27.588Z,19.30
2019-01-12T09:21:27.581Z,21.20
2019-01-12T09:22:30.803Z,21.10
2019-01-12T09:23:28.534Z,20.70
2019-01-12T09:24:27.543Z,21.90
2019-01-12T09:25:27.533Z,22.20
2019-01-12T09:26:27.519Z,25.20
2019-01-12T09:27:27.507Z,29.30
2019-01-12T09:28:27.500Z,24.20
2019-01-12T09:29:27.489Z,26.60
2019-01-12T09:30:27.477Z,27.30
2019-01-12T09:31:27.469Z,24.10
2019-01-12T09:32:27.455Z,20.50
2019-01-12T09:33:27.447Z,20.50
2019-01-12T09:34:27.436Z,29.30
2019-01-12T09:35:27.424Z,23.90
2019-01-12T09:36:27.412Z,23.40
2019-01-12T09:37:27.405Z,29.00
2019-01-12T09:38:27.430Z,26.10
2019-01-12T09:39:27.384Z,22.70
2019-01-12T09:40:27.372Z,25.20
2019-01-12T09:41:27.362Z,21.30
2019-01-12T09:42:27.348Z,26.30
2019-01-12T09:43:27.342Z,27.00
2019-01-12T09:44:27.332Z,25.90
2019-01-12T09:45:27.315Z,23.00
2019-01-12T09:46:27.305Z,17.30
2019-01-12T09:47:27.295Z,23.90
2019-01-12T09:48:27.283Z,19.10
2019-01-12T09:49:27.279Z,25.80
2019-01-12T09:50:27.265Z,16.90
2019-01-12T09:51:27.257Z,20.40
2019-01-12T09:52:27.243Z,18.60
2019-01-12T09:53:27.233Z,18.90
2019-01-12T09:54:27.220Z,15.70
2019-01-12T09:55:27.212Z,14.10
2019-01-12T09:56:27.204Z,15.90
2019-01-12T09:57:27.188Z,12.30
2019-01-12T09:58:27.182Z,13.90
2019-01-12T09:59:27.180Z,13.80
2019-01-12T10:00:27.159Z,12.50
2019-01-12T10:01:27.153Z,11.80
2019-01-12T10:02:27.142Z,12.30
2019-01-12T10:03:27.129Z,10.10
2019-01-12T10:04:27.122Z,9.70
2019-01-12T10:05:27.111Z,9.70
2019-01-12T10:06:27.092Z,10.50
2019-01-12T10:07:27.094Z,10.10
2019-01-12T10:08:27.081Z,10.40
2019-01-12T10:09:27.060Z,8.20
2019-01-12T10:10:27.054Z,7.90
2019-01-12T10:11:27.040Z,6.70
2019-01-12T10:12:27.027Z,7.40
2019-01-12T10:13:27.018Z,6.70
2019-01-12T10:14:27.006Z,7.10
2019-01-12T10:15:26.998Z,8.20
2019-01-12T10:16:26.989Z,8.10
2019-01-12T10:17:26.975Z,7.00
2019-01-12T10:18:26.969Z,6.90
2019-01-12T10:19:26.952Z,5.60
2019-01-12T10:20:26.943Z,6.70
2019-01-12T10:21:26.935Z,5.90
2019-01-12T10:22:28.665Z,6.90
2019-01-12T10:23:26.915Z,7.50
2019-01-12T10:24:26.898Z,6.00
2019-01-12T10:25:26.892Z,7.00
2019-01-12T10:26:26.878Z,5.40
2019-01-12T10:27:26.870Z,6.50
2019-01-12T10:28:26.858Z,5.50
2019-01-12T10:29:26.847Z,5.00
2019-01-12T10:30:26.850Z,5.60
2019-01-12T10:31:26.853Z,4.40
2019-01-12T10:32:26.858Z,4.30
2019-01-12T10:33:26.854Z,4.00
2019-01-12T10:34:26.845Z,5.50
2019-01-12T10:35:26.885Z,7.10
2019-01-12T10:36:26.784Z,4.70
2019-01-12T10:37:26.770Z,6.10
2019-01-12T10:38:26.760Z,3.70
2019-01-12T10:39:26.743Z,4.90
2019-01-12T10:40:26.736Z,6.20
2019-01-12T10:41:26.724Z,3.60
2019-01-12T10:42:26.708Z,3.70
2019-01-12T10:43:26.705Z,5.00
2019-01-12T10:44:26.688Z,3.90
2019-01-12T10:45:26.679Z,3.40
2019-01-12T10:46:26.665Z,4.20
2019-01-12T10:47:26.656Z,4.60
2019-01-12T10:48:26.644Z,5.10
2019-01-12T10:49:26.641Z,5.20
2019-01-12T10:50:26.623Z,3.50
2019-01-12T10:51:26.614Z,2.70
2019-01-12T10:52:26.602Z,3.60
2019-01-12T10:53:26.592Z,4.40
2019-01-12T10:54:26.585Z,3.70
2019-01-12T10:55:26.569Z,3.30
2019-01-12T10:56:26.560Z,4.30
2019-01-12T10:57:26.550Z,6.30
2019-01-12T10:58:26.630Z,5.00
2019-01-12T10:59:26.544Z,4.60
2019-01-12T11:00:26.532Z,4.20
2019-01-12T11:01:26.517Z,3.10
2019-01-12T11:02:26.501Z,3.10
2019-01-12T11:03:26.485Z,4.10
2019-01-12T11:04:26.529Z,3.00
2019-01-12T11:05:26.494Z,4.10
2019-01-12T11:06:26.462Z,4.00
2019-01-12T11:07:26.449Z,3.70
2019-01-12T11:08:26.447Z,4.70
2019-01-12T11:09:26.430Z,3.70
2019-01-12T11:10:26.419Z,3.80
2019-01-12T11:11:26.405Z,3.00
2019-01-12T11:12:26.431Z,2.40
2019-01-12T11:13:26.408Z,4.90
2019-01-12T11:14:26.373Z,4.20
2019-01-12T11:15:26.366Z,2.50
2019-01-12T11:16:26.357Z,2.50
2019-01-12T11:17:26.402Z,4.10
2019-01-12T11:18:26.348Z,2.10
2019-01-12T11:19:26.345Z,3.00
2019-01-12T11:20:26.327Z,3.90
2019-01-12T11:21:26.300Z,3.00
2019-01-12T11:22:26.295Z,2.90
2019-01-12T11:23:26.304Z,4.70
2019-01-12T11:24:26.266Z,2.60
2019-01-12T11:25:26.260Z,2.70
2019-01-12T11:26:26.251Z,3.70
2019-01-12T11:27:26.240Z,1.80
2019-01-12T11:28:26.220Z,2.90
2019-01-12T11:29:26.209Z,4.20
2019-01-12T11:30:26.200Z,3.50
2019-01-12T11:31:26.184Z,3.80
2019-01-12T11:32:26.173Z,2.60
2019-01-12T11:33:26.169Z,2.90
2019-01-12T11:34:26.160Z,2.60
2019-01-12T11:35:26.144Z,2.40
2019-01-12T11:36:26.134Z,3.20
2019-01-12T11:37:26.122Z,4.00
2019-01-12T11:38:26.111Z,4.70
2019-01-12T11:39:26.101Z,2.90
2019-01-12T11:40:26.087Z,3.00
2019-01-12T11:41:26.079Z,4.40
2019-01-12T11:42:26.068Z,2.90
2019-01-12T11:43:26.057Z,2.70
2019-01-12T11:44:26.050Z,1.90
2019-01-12T11:45:26.036Z,2.90
2019-01-12T11:46:26.025Z,3.00
2019-01-12T11:47:26.020Z,3.60
2019-01-12T11:48:26.004Z,3.50
2019-01-12T11:49:25.997Z,2.90
2019-01-12T11:50:25.981Z,2.90
2019-01-12T11:51:25.970Z,3.00
2019-01-12T11:52:25.962Z,3.50
2019-01-12T11:53:25.951Z,3.00
2019-01-12T11:54:25.939Z,2.40
2019-01-12T11:55:25.929Z,2.10
2019-01-12T11:56:25.920Z,2.40
2019-01-12T11:57:25.908Z,3.50
2019-01-12T11:58:25.897Z,2.20
2019-01-12T11:59:25.892Z,2.70
2019-01-12T12:00:25.876Z,3.70
2019-01-12T12:01:25.866Z,3.30
2019-01-12T12:02:25.854Z,3.60
2019-01-12T12:03:25.844Z,3.20
2019-01-12T12:04:25.832Z,3.30
2019-01-12T12:05:25.823Z,3.20
2019-01-12T12:06:25.812Z,2.20
2019-01-12T12:07:25.800Z,2.40
2019-01-12T12:08:25.792Z,2.50
2019-01-12T12:09:25.781Z,2.00
2019-01-12T12:10:25.775Z,3.30
2019-01-12T12:11:25.756Z,3.40
2019-01-12T12:12:25.748Z,2.60
2019-01-12T12:13:25.736Z,2.70
2019-01-12T12:14:25.731Z,2.90
2019-01-12T12:15:25.715Z,2.90
2019-01-12T12:16:25.704Z,3.70
2019-01-12T12:17:25.694Z,5.30
2019-01-12T12:18:25.681Z,4.70
2019-01-12T12:19:25.675Z,4.30
2019-01-12T12:20:25.662Z,5.30
2019-01-12T12:21:25.654Z,4.60
2019-01-12T12:22:25.642Z,3.10
2019-01-12T12:23:25.634Z,2.50
2019-01-12T12:24:25.626Z,4.20
2019-01-12T12:25:25.609Z,4.60
2019-01-12T12:26:25.598Z,3.40
2019-01-12T12:27:26.075Z,2.80
2019-01-12T12:28:25.579Z,1.90
2019-01-12T12:29:25.571Z,2.90
2019-01-12T12:30:25.554Z,3.30
2019-01-12T12:31:25.548Z,4.20
2019-01-12T12:32:25.535Z,2.90
2019-01-12T12:33:25.527Z,3.00
2019-01-12T12:34:25.516Z,4.70
2019-01-12T12:35:25.509Z,3.40
2019-01-12T12:36:25.492Z,2.70
2019-01-12T12:37:25.481Z,4.20
2019-01-12T12:38:25.470Z,2.80
2019-01-12T12:39:25.468Z,3.60
2019-01-12T12:40:25.450Z,3.60
2019-01-12T12:41:25.442Z,3.20
2019-01-12T12:42:25.429Z,4.80
2019-01-12T12:43:25.418Z,3.50
2019-01-12T12:44:25.412Z,3.20
2019-01-12T12:45:25.396Z,3.60
2019-01-12T12:46:25.423Z,4.00
2019-01-12T12:47:25.374Z,2.80
2019-01-12T12:48:25.600Z,2.10
2019-01-12T12:49:25.354Z,2.80
2019-01-12T12:50:25.344Z,3.60
2019-01-12T12:51:25.331Z,2.80
2019-01-12T12:52:25.321Z,2.90
2019-01-12T12:53:25.311Z,3.80
2019-01-12T12:54:25.304Z,4.90
2019-01-12T12:55:25.291Z,3.30
2019-01-12T12:56:25.279Z,2.90
2019-01-12T12:57:25.270Z,4.70
2019-01-12T12:58:25.257Z,2.80